Time,TemperatureF,DewpointF,PressureIn,WindDirection,WindDirectionDegrees,WindSpeedMPH,WindSpeedGustMPH,Humidity,HourlyPrecipIn,Conditions,Clouds,dailyrainin,SoftwareType,DateUTC
2013-11-12 00:47:00,48.4,33.0,29.90,NW,304,2.0,0.0,55,0.00,,,0.00,WeatherTracker,2013-11-12 05:47:00,
2013-11-12 00:51:00,48.5,32.6,29.90,NW,306,2.0,0.0,54,0.00,,,0.00,WeatherTracker,2013-11-12 05:51:00,
2013-11-12 02:56:00,44.5,39.0,29.91,NW,306,3.0,0.0,81,0.03,,,0.03,WeatherTracker,2013-11-12 07:56:00,
2013-11-12 03:33:00,44.3,38.5,29.90,WNW,292,2.0,0.0,80,0.03,,,0.03,WeatherTracker,2013-11-12 08:33:00,
2013-11-12 04:11:00,43.7,39.8,29.92,WNW,283,0.0,0.0,86,0.01,,,0.04,WeatherTracker,2013-11-12 09:11:00,
2013-11-12 05:03:00,42.5,39.2,29.94,North,10,6.0,0.0,88,0.04,,,0.07,WeatherTracker,2013-11-12 10:03:00,
2013-11-12 05:15:00,41.3,37.1,29.94,North,360,3.0,0.0,85,0.03,,,0.07,WeatherTracker,2013-11-12 10:15:00,
2013-11-12 06:07:00,39.7,36.7,29.95,WSW,256,3.0,0.0,89,0.01,,,0.08,WeatherTracker,2013-11-12 11:07:00,
2013-11-12 06:48:00,37.6,34.1,29.99,NW,317,2.0,0.0,87,0.02,,,0.09,WeatherTracker,2013-11-12 11:48:00,
2013-11-12 07:11:00,35.4,32.5,30.01,ENE,59,1.0,0.0,89,0.01,,,0.09,WeatherTracker,2013-11-12 12:11:00,
2013-11-12 07:38:00,34.6,32.0,30.03,NNE,12,7.0,0.0,90,0.01,,,0.09,WeatherTracker,2013-11-12 12:38:00,
2013-11-12 08:48:00,34.7,29.5,30.04,North,351,2.0,0.0,81,0.01,,,0.10,WeatherTracker,2013-11-12 13:48:00,
2013-11-12 09:13:00,34.9,28.4,30.05,NNW,332,1.0,0.0,77,0.01,,,0.10,WeatherTracker,2013-11-12 14:13:00,
2013-11-12 09:23:00,35.0,28.2,30.06,NW,311,3.0,0.0,76,0.01,,,0.10,WeatherTracker,2013-11-12 14:23:00,
2013-11-12 09:42:00,35.2,26.1,30.06,NW,325,2.0,0.0,69,0.01,,,0.10,WeatherTracker,2013-11-12 14:42:00,
2013-11-12 10:00:00,35.3,25.8,30.06,NNW,336,2.0,0.0,68,0.00,,,0.10,WeatherTracker,2013-11-12 15:00:00,
2013-11-12 10:16:00,35.4,24.5,30.06,NNW,340,1.0,0.0,64,0.00,,,0.10,WeatherTracker,2013-11-12 15:16:00,
2013-11-12 10:31:00,35.4,22.9,30.06,East,79,1.0,0.0,60,0.00,,,0.10,WeatherTracker,2013-11-12 15:31:00,
2013-11-12 10:37:00,35.3,22.0,30.06,NNW,327,1.0,0.0,58,0.00,,,0.10,WeatherTracker,2013-11-12 15:37:00,
2013-11-12 10:54:00,35.3,20.3,30.06,NE,46,3.0,0.0,54,0.00,,,0.10,WeatherTracker,2013-11-12 15:54:00,
2013-11-12 11:00:00,35.2,20.7,30.06,NNE,17,6.0,0.0,55,0.00,,,0.10,WeatherTracker,2013-11-12 16:00:00,
2013-11-12 11:34:00,35.1,21.0,30.06,NW,310,1.0,0.0,56,0.00,,,0.10,WeatherTracker,2013-11-12 16:34:00,
2013-11-12 11:41:00,35.1,21.4,30.06,NNW,336,2.0,0.0,57,0.00,,,0.10,WeatherTracker,2013-11-12 16:41:00,
2013-11-12 11:47:00,35.0,20.9,30.06,ESE,102,1.0,0.0,56,0.00,,,0.10,WeatherTracker,2013-11-12 16:47:00,
2013-11-12 12:01:00,35.1,21.4,30.06,ENE,64,2.0,0.0,57,0.00,,,0.10,WeatherTracker,2013-11-12 17:01:00,
2013-11-12 12:21:00,35.1,21.0,30.06,NNE,24,2.0,0.0,56,0.00,,,0.10,WeatherTracker,2013-11-12 17:21:00,
2013-11-12 12:29:00,35.3,21.6,30.06,NW,324,5.0,0.0,57,0.00,,,0.10,WeatherTracker,2013-11-12 17:29:00,
2013-11-12 12:39:00,35.0,20.9,30.06,ESE,105,3.0,0.0,56,0.00,,,0.10,WeatherTracker,2013-11-12 17:39:00,
2013-11-12 12:46:00,34.8,21.1,30.06,North,350,1.0,0.0,57,0.00,,,0.10,WeatherTracker,2013-11-12 17:46:00,
2013-11-12 12:52:00,34.8,21.5,30.06,West,263,1.0,0.0,58,0.00,,,0.10,WeatherTracker,2013-11-12 17:52:00,
2013-11-12 16:56:00,32.7,20.0,30.14,North,9,0.0,0.0,59,0.00,,,0.10,WeatherTracker,2013-11-12 21:56:00,
2013-11-12 17:46:00,32.4,18.9,30.16,NE,36,7.0,0.0,57,0.00,,,0.10,WeatherTracker,2013-11-12 22:46:00,
2013-11-12 18:09:00,32.4,18.9,30.16,NE,53,2.0,0.0,57,0.00,,,0.10,WeatherTracker,2013-11-12 23:09:00,
2013-11-12 20:29:00,30.7,17.7,30.18,NNE,14,1.0,0.0,58,0.00,,,0.10,WeatherTracker,2013-11-13 01:29:00,
2013-11-12 23:28:00,23.6,15.6,30.21,WNW,302,0.0,0.0,71,0.00,,,0.10,WeatherTracker,2013-11-13 04:28:00,